createdAt,value
2019-03-16T00:01:12.850Z,6.70
2019-03-16T00:03:39.842Z,6.70
2019-03-16T00:06:08.114Z,6.60
2019-03-16T00:08:35.707Z,6.60
2019-03-16T00:11:03.306Z,6.50
2019-03-16T00:13:31.141Z,6.60
2019-03-16T00:15:58.928Z,6.60
2019-03-16T00:18:26.696Z,6.50
2019-03-16T00:20:54.464Z,6.60
2019-03-16T00:23:21.888Z,6.50
2019-03-16T00:25:49.732Z,6.70
2019-03-16T00:28:17.490Z,6.70
2019-03-16T00:30:45.052Z,6.60
2019-03-16T00:33:12.603Z,6.50
2019-03-16T00:35:40.107Z,6.50
2019-03-16T00:38:07.607Z,6.50
2019-03-16T00:40:35.133Z,6.50
2019-03-16T00:43:03.187Z,6.50
2019-03-16T00:45:30.695Z,6.40
2019-03-16T00:47:58.535Z,6.40
2019-03-16T00:50:26.021Z,6.50
2019-03-16T00:52:54.501Z,6.50
2019-03-16T00:55:22.032Z,6.40
2019-03-16T00:57:49.901Z,6.40
2019-03-16T01:00:17.827Z,6.40
2019-03-16T01:02:45.432Z,6.50
2019-03-16T01:05:13.777Z,6.60
2019-03-16T01:07:41.347Z,6.50
2019-03-16T01:10:09.005Z,6.50
2019-03-16T01:12:36.812Z,6.40
2019-03-16T01:15:04.777Z,6.50
2019-03-16T01:17:32.608Z,6.60
2019-03-16T01:20:00.246Z,6.50
2019-03-16T01:22:28.005Z,6.50
2019-03-16T01:24:55.880Z,6.40
2019-03-16T01:27:23.780Z,6.60
2019-03-16T01:29:51.940Z,6.60
2019-03-16T01:32:20.025Z,6.60
2019-03-16T01:34:47.842Z,6.60
2019-03-16T01:37:15.670Z,6.50
2019-03-16T01:39:43.185Z,6.50
2019-03-16T01:42:11.174Z,6.50
2019-03-16T01:44:39.007Z,6.50
2019-03-16T01:47:06.465Z,6.50
2019-03-16T01:49:34.022Z,6.50
2019-03-16T01:52:01.804Z,6.40
2019-03-16T01:54:29.369Z,6.40
2019-03-16T01:56:57.282Z,6.40
2019-03-16T01:59:25.235Z,6.40
2019-03-16T02:01:52.629Z,6.30
2019-03-16T02:04:20.213Z,6.30
2019-03-16T02:06:47.994Z,6.30
2019-03-16T02:09:16.102Z,6.30
2019-03-16T02:11:43.906Z,6.40
2019-03-16T02:14:11.578Z,6.30
2019-03-16T02:16:39.396Z,6.40
2019-03-16T02:19:07.016Z,6.40
2019-03-16T02:21:34.561Z,6.50
2019-03-16T02:24:02.405Z,6.40
2019-03-16T02:26:29.883Z,6.40
2019-03-16T02:28:57.356Z,6.50
2019-03-16T02:31:25.156Z,6.40
2019-03-16T02:33:52.850Z,6.40
2019-03-16T02:36:20.732Z,6.40
2019-03-16T02:38:48.487Z,6.40
2019-03-16T02:41:15.910Z,6.70
2019-03-16T02:43:43.347Z,6.60
2019-03-16T02:46:10.904Z,6.60
2019-03-16T02:48:38.823Z,6.40
2019-03-16T02:51:06.736Z,6.50
2019-03-16T02:53:34.500Z,6.40
2019-03-16T02:56:02.425Z,6.50
2019-03-16T02:58:29.986Z,6.40
2019-03-16T03:00:57.806Z,6.50
2019-03-16T03:03:29.811Z,6.40
2019-03-16T03:05:54.586Z,6.30
2019-03-16T03:08:22.464Z,6.20
2019-03-16T03:16:13.411Z,6.20
2019-03-16T03:18:41.243Z,6.20
2019-03-16T03:21:08.767Z,6.20
2019-03-16T03:23:36.461Z,6.20
2019-03-16T03:26:03.783Z,6.20
2019-03-16T03:28:31.544Z,6.20
2019-03-16T03:30:59.034Z,6.20
2019-03-16T03:33:26.439Z,6.10
2019-03-16T03:35:53.914Z,6.10
2019-03-16T03:38:21.494Z,6.20
2019-03-16T03:40:48.853Z,6.20
2019-03-16T03:43:16.469Z,6.10
2019-03-16T03:45:43.859Z,6.10
2019-03-16T03:48:11.149Z,6.10
2019-03-16T03:50:38.835Z,6.20
2019-03-16T03:53:06.167Z,6.10
2019-03-16T03:55:34.133Z,6.10
2019-03-16T03:58:01.945Z,6.10
2019-03-16T04:00:29.645Z,6.00
2019-03-16T04:02:57.359Z,5.90
2019-03-16T04:05:24.770Z,6.00
2019-03-16T04:07:52.072Z,5.90
2019-03-16T04:10:19.414Z,5.90
2019-03-16T04:12:46.723Z,5.90
2019-03-16T04:15:14.069Z,5.80
2019-03-16T04:17:41.808Z,6.00
2019-03-16T04:20:09.233Z,5.90
2019-03-16T04:22:36.706Z,5.90
2019-03-16T04:25:04.175Z,5.90
2019-03-16T04:27:31.844Z,6.10
2019-03-16T04:29:59.276Z,6.10
2019-03-16T04:32:26.694Z,6.10
2019-03-16T04:34:54.036Z,6.10
2019-03-16T04:37:21.878Z,6.00
2019-03-16T04:39:49.268Z,6.00
2019-03-16T04:42:16.590Z,5.90
2019-03-16T04:44:43.932Z,5.90
2019-03-16T04:47:11.334Z,5.90
2019-03-16T04:49:38.818Z,5.90
2019-03-16T04:52:06.445Z,5.80
2019-03-16T04:54:34.020Z,5.80
2019-03-16T04:57:01.368Z,5.80
2019-03-16T04:59:29.015Z,5.80
2019-03-16T05:01:56.350Z,5.80
2019-03-16T05:04:23.926Z,5.80
2019-03-16T05:06:51.242Z,5.80
2019-03-16T05:09:18.790Z,5.80
2019-03-16T05:11:46.529Z,5.80
2019-03-16T05:14:14.165Z,5.70
2019-03-16T05:16:42.310Z,5.70
2019-03-16T05:19:09.637Z,5.70
2019-03-16T05:21:37.093Z,5.70
2019-03-16T05:24:04.636Z,5.70
2019-03-16T05:26:31.967Z,5.70
2019-03-16T05:28:59.254Z,5.70
2019-03-16T05:31:26.606Z,5.70
2019-03-16T05:33:54.156Z,5.70
2019-03-16T05:36:21.618Z,5.60
2019-03-16T05:38:49.536Z,5.60
2019-03-16T05:41:17.138Z,5.50
2019-03-16T05:43:44.730Z,5.50
2019-03-16T05:46:12.599Z,5.50
2019-03-16T05:48:40.007Z,5.50
2019-03-16T05:51:07.689Z,5.50
2019-03-16T05:53:34.999Z,5.50
2019-03-16T05:56:02.316Z,5.60
2019-03-16T05:58:30.015Z,5.50
2019-03-16T06:00:57.379Z,5.50
2019-03-16T06:03:24.691Z,5.50
2019-03-16T06:05:52.053Z,5.50
2019-03-16T06:08:19.350Z,5.60
2019-03-16T06:10:47.019Z,5.60
2019-03-16T06:13:14.343Z,5.60
2019-03-16T06:15:41.939Z,5.60
2019-03-16T06:18:09.263Z,5.60
2019-03-16T06:20:36.922Z,5.80
2019-03-16T06:23:04.310Z,5.80
2019-03-16T06:25:31.765Z,5.70
2019-03-16T06:27:59.197Z,5.60
2019-03-16T06:30:26.531Z,5.60
2019-03-16T06:32:54.164Z,5.60
2019-03-16T06:35:25.044Z,5.60
2019-03-16T06:37:50.766Z,5.60
2019-03-16T06:40:18.455Z,5.60
2019-03-16T06:42:46.017Z,5.60
2019-03-16T06:45:13.315Z,5.60
2019-03-16T06:47:40.677Z,5.60
2019-03-16T06:50:09.022Z,5.60
2019-03-16T06:52:36.651Z,5.70
2019-03-16T06:55:03.979Z,5.70
2019-03-16T06:57:31.591Z,5.80
2019-03-16T06:59:58.990Z,5.80
2019-03-16T07:02:26.609Z,5.90
2019-03-16T07:04:54.190Z,5.90
2019-03-16T07:07:21.538Z,5.90
2019-03-16T07:09:48.861Z,5.90
2019-03-16T07:12:16.309Z,5.90
2019-03-16T07:14:43.738Z,6.00
2019-03-16T07:17:11.153Z,6.00
2019-03-16T07:19:38.808Z,5.90
2019-03-16T07:22:06.183Z,5.90
2019-03-16T07:24:33.794Z,5.90
2019-03-16T07:27:01.459Z,6.00
2019-03-16T07:29:29.128Z,6.00
2019-03-16T07:31:56.461Z,6.00
2019-03-16T07:34:23.827Z,6.00
2019-03-16T07:36:51.188Z,6.00
2019-03-16T07:39:18.597Z,6.00
2019-03-16T07:41:46.642Z,6.00
2019-03-16T07:44:14.160Z,6.00
2019-03-16T07:46:41.550Z,5.90
2019-03-16T07:49:08.900Z,6.00
2019-03-16T07:51:36.184Z,6.00
2019-03-16T07:54:03.531Z,5.90
2019-03-16T07:56:30.818Z,6.00
2019-03-16T07:58:58.483Z,6.00
2019-03-16T08:01:25.799Z,6.00
2019-03-16T08:03:53.405Z,6.00
2019-03-16T08:06:20.666Z,6.10
2019-03-16T08:08:48.544Z,6.00
2019-03-16T08:11:16.697Z,6.00
2019-03-16T08:13:44.022Z,6.00
2019-03-16T08:16:11.363Z,6.10
2019-03-16T08:18:38.686Z,6.10
2019-03-16T08:21:06.284Z,6.10
2019-03-16T08:23:33.575Z,6.20
2019-03-16T08:26:01.340Z,6.20
2019-03-16T08:28:28.925Z,6.20
2019-03-16T08:30:56.938Z,6.20
2019-03-16T08:33:24.349Z,6.30
2019-03-16T08:35:51.668Z,6.20
2019-03-16T08:38:18.939Z,6.20
2019-03-16T08:40:46.535Z,6.20
2019-03-16T08:43:13.853Z,6.20
2019-03-16T08:45:41.203Z,6.20
2019-03-16T08:48:21.824Z,6.30
2019-03-16T08:50:38.151Z,6.40
2019-03-16T08:53:06.192Z,6.50
2019-03-16T08:55:33.907Z,6.40
2019-03-16T08:58:05.992Z,6.30
2019-03-16T09:00:30.698Z,6.20
2019-03-16T09:02:58.047Z,6.30
2019-03-16T09:05:25.766Z,6.30
2019-03-16T09:07:53.791Z,6.30
2019-03-16T09:10:21.255Z,6.30
2019-03-16T09:12:54.847Z,6.30
2019-03-16T09:15:17.833Z,6.40
2019-03-16T09:17:45.140Z,6.40
2019-03-16T09:20:12.501Z,6.40
2019-03-16T09:22:39.938Z,6.30
2019-03-16T09:25:07.413Z,6.30
2019-03-16T09:27:34.754Z,6.40
2019-03-16T09:30:02.201Z,6.40
2019-03-16T09:32:30.143Z,6.50
2019-03-16T09:34:58.036Z,6.40
2019-03-16T09:37:25.733Z,6.40
2019-03-16T09:39:53.086Z,6.40
2019-03-16T09:42:23.339Z,6.40
2019-03-16T09:44:50.778Z,6.40
2019-03-16T09:47:18.184Z,6.50
2019-03-16T09:49:45.599Z,6.50
2019-03-16T09:52:14.369Z,6.50
2019-03-16T09:54:41.701Z,6.60
2019-03-16T09:57:09.068Z,6.60
2019-03-16T09:59:36.684Z,6.50
2019-03-16T10:02:03.975Z,6.50
2019-03-16T10:04:31.526Z,6.50
2019-03-16T10:06:58.907Z,6.60
2019-03-16T10:09:26.110Z,6.60
2019-03-16T10:11:53.426Z,6.60
2019-03-16T10:14:20.865Z,6.70
2019-03-16T10:16:48.315Z,6.80
2019-03-16T10:19:15.634Z,6.90
2019-03-16T10:21:43.008Z,6.80
2019-03-16T10:24:10.422Z,6.90
2019-03-16T10:26:38.159Z,6.90
2019-03-16T10:29:05.476Z,7.00
2019-03-16T10:31:32.864Z,7.00
2019-03-16T10:34:00.223Z,7.00
2019-03-16T10:36:28.109Z,7.00
2019-03-16T10:38:55.429Z,7.10
2019-03-16T10:41:23.292Z,7.10
2019-03-16T10:43:51.058Z,7.10
2019-03-16T10:46:18.763Z,7.20
2019-03-16T10:48:46.108Z,7.30
2019-03-16T10:51:13.917Z,7.30
2019-03-16T10:53:41.253Z,7.30
2019-03-16T10:56:08.836Z,7.30
2019-03-16T10:58:36.175Z,7.40
2019-03-16T11:01:03.696Z,7.40
2019-03-16T11:03:31.387Z,7.50
2019-03-16T11:05:58.838Z,7.50
2019-03-16T11:08:26.482Z,7.60
2019-03-16T11:10:53.884Z,7.70
2019-03-16T11:13:21.344Z,7.90
2019-03-16T11:15:48.713Z,8.00
2019-03-16T11:18:16.046Z,8.00
2019-03-16T11:20:43.390Z,7.90
2019-03-16T11:23:11.414Z,7.90
2019-03-16T11:25:38.856Z,8.00
2019-03-16T11:28:06.672Z,7.90
2019-03-16T11:30:33.986Z,8.00
2019-03-16T11:33:01.743Z,8.10
2019-03-16T11:35:29.076Z,8.30
2019-03-16T11:37:56.634Z,8.40
2019-03-16T11:40:24.286Z,8.50
2019-03-16T11:42:51.632Z,8.70
2019-03-16T11:45:19.250Z,8.70
2019-03-16T11:47:46.645Z,8.80
2019-03-16T11:50:13.995Z,8.90
2019-03-16T11:52:41.695Z,8.90
2019-03-16T11:55:09.033Z,8.90
2019-03-16T11:57:36.395Z,8.90
2019-03-16T12:00:04.242Z,9.10
2019-03-16T12:02:31.573Z,9.10
2019-03-16T12:04:59.290Z,9.20
2019-03-16T12:07:26.638Z,9.30
2019-03-16T12:09:54.194Z,9.40
2019-03-16T12:12:21.551Z,9.50
2019-03-16T12:14:48.888Z,9.40
2019-03-16T12:17:16.277Z,9.30
2019-03-16T12:19:43.929Z,9.40
2019-03-16T12:22:11.279Z,9.30
2019-03-16T12:24:38.646Z,9.30
2019-03-16T12:27:05.985Z,9.30
2019-03-16T12:29:34.372Z,9.40
2019-03-16T12:32:01.935Z,9.40
2019-03-16T12:34:29.353Z,9.60
2019-03-16T12:36:56.732Z,9.60
2019-03-16T12:39:24.298Z,9.70
2019-03-16T12:41:51.643Z,9.70
2019-03-16T12:44:19.074Z,9.80
2019-03-16T12:46:46.404Z,9.80
2019-03-16T12:49:14.055Z,9.80
2019-03-16T12:51:41.748Z,9.80
2019-03-16T12:54:09.444Z,9.70
2019-03-16T12:56:36.758Z,9.70
2019-03-16T12:59:10.499Z,9.60
2019-03-16T13:01:33.349Z,9.50
2019-03-16T13:04:01.286Z,9.50
2019-03-16T13:06:28.887Z,9.50
2019-03-16T13:08:56.512Z,9.50
2019-03-16T13:11:23.874Z,9.50
2019-03-16T13:13:51.594Z,9.50
2019-03-16T13:16:19.221Z,9.50
2019-03-16T13:18:46.575Z,9.40
2019-03-16T13:21:14.883Z,9.30
2019-03-16T13:23:42.336Z,9.30
2019-03-16T13:26:10.041Z,9.30
2019-03-16T13:28:37.448Z,9.30
2019-03-16T13:31:04.915Z,9.30
2019-03-16T13:33:32.392Z,9.20
2019-03-16T13:35:59.981Z,9.20
2019-03-16T13:38:27.297Z,9.20
2019-03-16T13:40:54.870Z,9.10
2019-03-16T13:43:22.252Z,9.20
2019-03-16T13:45:50.019Z,9.20
2019-03-16T13:48:17.658Z,9.10
2019-03-16T13:50:45.390Z,9.10
2019-03-16T13:53:13.189Z,9.10
2019-03-16T13:55:40.889Z,9.10
2019-03-16T13:58:08.363Z,9.20
2019-03-16T14:00:35.787Z,9.20
2019-03-16T14:03:03.728Z,9.20
2019-03-16T14:05:31.051Z,9.20
2019-03-16T14:07:58.741Z,9.30
2019-03-16T14:10:26.379Z,9.30
2019-03-16T14:12:53.830Z,9.30
2019-03-16T14:15:21.660Z,9.30
2019-03-16T14:17:49.025Z,9.40
2019-03-16T14:20:16.856Z,9.40
2019-03-16T14:22:44.516Z,9.40
2019-03-16T14:25:12.533Z,9.40
2019-03-16T14:27:40.586Z,9.50
2019-03-16T14:30:09.751Z,9.50
2019-03-16T14:32:37.162Z,9.50
2019-03-16T14:35:04.865Z,9.40
2019-03-16T14:37:32.360Z,9.50
2019-03-16T14:40:00.142Z,9.50
2019-03-16T14:42:27.725Z,9.60
2019-03-16T14:44:55.173Z,9.60
2019-03-16T14:47:22.870Z,9.60
2019-03-16T14:49:50.544Z,9.60
2019-03-16T14:52:18.106Z,9.60
2019-03-16T14:54:45.452Z,9.60
2019-03-16T14:57:12.904Z,9.70
2019-03-16T14:59:40.475Z,9.70
2019-03-16T15:02:07.777Z,9.80
2019-03-16T15:04:35.266Z,9.80
2019-03-16T15:07:02.925Z,9.70
2019-03-16T15:09:31.139Z,9.70
2019-03-16T15:11:59.203Z,9.70
2019-03-16T15:14:26.979Z,9.60
2019-03-16T15:16:55.280Z,9.60
2019-03-16T15:19:23.133Z,9.50
2019-03-16T15:21:50.975Z,9.40
2019-03-16T15:24:18.972Z,9.40
2019-03-16T15:26:46.851Z,9.50
2019-03-16T15:29:14.926Z,9.50
2019-03-16T15:31:43.648Z,9.50
2019-03-16T15:34:11.636Z,9.60
2019-03-16T15:36:40.877Z,9.50
2019-03-16T15:39:08.618Z,9.50
2019-03-16T15:41:36.431Z,9.50
2019-03-16T15:44:03.999Z,9.40
2019-03-16T15:46:31.477Z,9.40
2019-03-16T15:48:59.243Z,9.40
2019-03-16T15:51:26.821Z,9.30
2019-03-16T15:53:54.799Z,9.20
2019-03-16T15:56:22.731Z,9.20
2019-03-16T15:58:50.524Z,9.20
2019-03-16T16:01:18.068Z,9.20
2019-03-16T16:03:46.439Z,9.20
2019-03-16T16:06:14.732Z,9.30
2019-03-16T16:08:42.774Z,9.30
2019-03-16T16:11:10.702Z,9.30
2019-03-16T16:13:38.929Z,9.30
2019-03-16T16:16:06.862Z,9.30
2019-03-16T16:18:34.589Z,9.30
2019-03-16T16:21:02.136Z,9.40
2019-03-16T16:23:29.766Z,9.30
2019-03-16T16:25:57.659Z,9.20
2019-03-16T16:28:25.215Z,9.30
2019-03-16T16:30:52.824Z,9.30
2019-03-16T16:33:20.451Z,9.20
2019-03-16T16:35:48.095Z,9.30
2019-03-16T16:38:15.724Z,9.20
2019-03-16T16:40:43.743Z,9.20
2019-03-16T16:43:12.082Z,9.20
2019-03-16T16:45:39.782Z,9.20
2019-03-16T16:48:07.969Z,9.10
2019-03-16T16:50:36.112Z,9.30
2019-03-16T16:53:03.735Z,9.20
2019-03-16T16:55:31.336Z,9.20
2019-03-16T16:57:58.853Z,9.20
2019-03-16T17:00:26.829Z,9.20
2019-03-16T17:02:54.778Z,9.20
2019-03-16T17:05:22.799Z,9.20
2019-03-16T17:07:50.342Z,9.20
2019-03-16T17:10:18.110Z,9.10
2019-03-16T17:12:46.063Z,9.20
2019-03-16T17:15:14.295Z,9.10
2019-03-16T17:17:41.984Z,9.10
2019-03-16T17:20:10.201Z,9.10
2019-03-16T17:22:37.776Z,9.20
2019-03-16T17:25:05.621Z,9.10
2019-03-16T17:27:33.766Z,9.10
2019-03-16T17:30:02.261Z,9.10
2019-03-16T17:32:29.976Z,9.10
2019-03-16T17:34:57.988Z,9.00
2019-03-16T17:37:25.776Z,9.00
2019-03-16T17:39:53.695Z,9.00
2019-03-16T17:42:21.533Z,9.10
2019-03-16T17:44:51.083Z,9.10
2019-03-16T17:47:18.972Z,9.00
2019-03-16T17:49:47.575Z,9.00
2019-03-16T17:52:15.188Z,8.90
2019-03-16T17:54:48.515Z,9.00
2019-03-16T17:57:16.643Z,9.00
2019-03-16T17:59:44.976Z,8.90
2019-03-16T18:02:12.921Z,8.90
2019-03-16T18:04:40.554Z,8.90
2019-03-16T18:07:08.480Z,8.90
2019-03-16T18:09:36.116Z,9.00
2019-03-16T18:12:03.734Z,9.00
2019-03-16T18:14:31.689Z,9.10
2019-03-16T18:16:59.743Z,9.00
2019-03-16T18:19:27.344Z,8.90
2019-03-16T18:21:55.323Z,9.00
2019-03-16T18:24:23.400Z,8.90
2019-03-16T18:26:51.308Z,9.00
2019-03-16T18:29:18.806Z,9.00
2019-03-16T18:31:46.402Z,8.90
2019-03-16T18:34:14.264Z,8.90
2019-03-16T18:36:41.796Z,8.90
2019-03-16T18:39:09.421Z,8.90
2019-03-16T18:41:37.055Z,8.90
2019-03-16T18:44:05.143Z,8.80
2019-03-16T18:46:33.369Z,8.90
2019-03-16T18:49:01.358Z,8.80
2019-03-16T18:51:29.008Z,8.70
2019-03-16T18:53:59.646Z,8.70
2019-03-16T18:56:27.201Z,8.60
2019-03-16T18:58:55.273Z,8.60
2019-03-16T19:01:22.987Z,8.60
2019-03-16T19:03:50.970Z,8.50
2019-03-16T19:06:18.497Z,8.50
2019-03-16T19:08:46.643Z,8.50
2019-03-16T19:11:14.450Z,8.50
2019-03-16T19:13:42.989Z,8.50
2019-03-16T19:16:10.596Z,8.50
2019-03-16T19:18:38.474Z,8.40
2019-03-16T19:21:06.362Z,8.40
2019-03-16T19:23:34.003Z,8.30
2019-03-16T19:26:01.611Z,8.40
2019-03-16T19:28:29.213Z,8.40
2019-03-16T19:30:57.482Z,8.30
2019-03-16T19:33:25.570Z,8.30
2019-03-16T19:35:53.517Z,8.30
2019-03-16T19:38:21.140Z,8.30
2019-03-16T19:40:49.220Z,8.30
2019-03-16T19:43:17.090Z,8.30
2019-03-16T19:45:45.075Z,8.30
2019-03-16T19:48:12.968Z,8.30
2019-03-16T19:50:40.705Z,8.40
2019-03-16T19:53:08.636Z,8.30
2019-03-16T19:55:36.600Z,8.30
2019-03-16T19:58:04.453Z,8.30
2019-03-16T20:00:32.011Z,8.30
2019-03-16T20:02:59.595Z,8.40
2019-03-16T20:05:27.559Z,8.40
2019-03-16T20:07:55.112Z,8.40
2019-03-16T20:10:23.088Z,8.40
2019-03-16T20:12:53.220Z,8.40
2019-03-16T20:15:20.363Z,8.40
2019-03-16T20:17:48.054Z,8.50
2019-03-16T20:20:15.849Z,8.40
2019-03-16T20:22:43.445Z,8.40
2019-03-16T20:25:11.471Z,8.40
2019-03-16T20:27:39.552Z,8.40
2019-03-16T20:30:07.531Z,8.40
2019-03-16T20:32:35.340Z,8.50
2019-03-16T20:35:03.290Z,8.30
2019-03-16T20:37:31.028Z,8.50
2019-03-16T20:39:59.378Z,8.50
2019-03-16T20:42:26.913Z,8.40
2019-03-16T20:44:54.819Z,8.30
2019-03-16T20:47:22.737Z,8.20
2019-03-16T20:49:50.829Z,8.30
2019-03-16T20:52:19.077Z,8.30
2019-03-16T20:54:47.223Z,8.20
2019-03-16T20:57:14.786Z,8.20
2019-03-16T20:59:43.112Z,8.30
2019-03-16T21:02:10.984Z,8.20
2019-03-16T21:04:38.907Z,8.20
2019-03-16T21:07:06.922Z,8.20
2019-03-16T21:09:34.740Z,8.20
2019-03-16T21:12:02.306Z,8.30
2019-03-16T21:14:30.135Z,8.20
2019-03-16T21:16:58.224Z,8.20
2019-03-16T21:19:26.261Z,8.20
2019-03-16T21:21:54.067Z,8.10
2019-03-16T21:24:21.823Z,8.00
2019-03-16T21:26:52.913Z,8.00
2019-03-16T21:29:19.994Z,8.00
2019-03-16T21:31:47.987Z,8.10
2019-03-16T21:34:16.694Z,8.00
2019-03-16T21:36:44.597Z,8.10
2019-03-16T21:39:12.215Z,8.00
2019-03-16T21:41:39.948Z,8.10
2019-03-16T21:44:07.530Z,8.00
2019-03-16T21:46:35.365Z,8.00
2019-03-16T21:49:03.255Z,8.00
2019-03-16T21:51:30.995Z,8.00
2019-03-16T21:53:58.825Z,7.90
2019-03-16T21:56:26.538Z,8.00
2019-03-16T21:58:54.566Z,7.80
2019-03-16T22:01:22.158Z,7.80
2019-03-16T22:03:49.891Z,7.70
2019-03-16T22:06:17.526Z,7.80
2019-03-16T22:08:45.508Z,7.80
2019-03-16T22:11:13.347Z,7.90
2019-03-16T22:13:40.899Z,7.90
2019-03-16T22:16:08.477Z,7.90
2019-03-16T22:18:36.141Z,8.00
2019-03-16T22:21:03.931Z,8.00
2019-03-16T22:23:31.917Z,7.90
2019-03-16T22:25:59.799Z,8.00
2019-03-16T22:28:27.763Z,7.90
2019-03-16T22:30:55.341Z,7.90
2019-03-16T22:33:23.221Z,7.80
2019-03-16T22:35:51.692Z,7.90
2019-03-16T22:38:19.587Z,7.90
2019-03-16T22:40:47.134Z,7.90
2019-03-16T22:43:15.707Z,7.90
2019-03-16T22:45:43.309Z,7.90
2019-03-16T22:48:11.253Z,7.90
2019-03-16T22:50:38.894Z,7.90
2019-03-16T22:53:06.469Z,8.00
2019-03-16T22:55:34.682Z,7.90
2019-03-16T22:58:02.289Z,7.90
2019-03-16T23:00:42.608Z,7.90
2019-03-16T23:03:10.335Z,7.90
2019-03-16T23:05:37.887Z,8.00
2019-03-16T23:08:05.851Z,7.90
2019-03-16T23:10:33.766Z,7.80
2019-03-16T23:13:01.415Z,7.90
2019-03-16T23:15:29.326Z,7.80
2019-03-16T23:17:57.005Z,7.80
2019-03-16T23:20:24.583Z,7.80
2019-03-16T23:22:52.514Z,7.80
2019-03-16T23:25:20.177Z,7.90
2019-03-16T23:27:47.784Z,8.00
2019-03-16T23:30:15.372Z,7.90
2019-03-16T23:32:43.043Z,8.00
2019-03-16T23:35:10.922Z,7.90
2019-03-16T23:37:38.943Z,8.00
2019-03-16T23:40:06.789Z,7.90
2019-03-16T23:42:34.487Z,8.00
2019-03-16T23:45:02.106Z,7.90
2019-03-16T23:47:30.065Z,7.90
2019-03-16T23:49:58.328Z,7.90
2019-03-16T23:52:25.965Z,7.80
2019-03-16T23:54:53.664Z,7.80
2019-03-16T23:57:21.278Z,7.70
2019-03-16T23:59:48.818Z,7.80
